sensor_id;sensor_type;location;lat;lon;timestamp;temperature;humidity
15083;DHT22;7640;53.116;6.878;2022-11-09T00:01:29;13.30;99.90
15083;DHT22;7640;53.116;6.878;2022-11-09T00:03:59;13.40;99.90
15083;DHT22;7640;53.116;6.878;2022-11-09T00:06:29;13.40;99.90
15083;DHT22;7640;53.116;6.878;2022-11-09T00:09:00;13.50;99.90
15083;DHT22;7640;53.116;6.878;2022-11-09T00:11:33;13.60;99.90
15083;DHT22;7640;53.116;6.878;2022-11-09T00:14:02;13.60;99.90
15083;DHT22;7640;53.116;6.878;2022-11-09T00:16:31;13.70;99.90
15083;DHT22;7640;53.116;6.878;2022-11-09T00:18:59;13.70;99.90
15083;DHT22;7640;53.116;6.878;2022-11-09T00:21:27;13.60;99.90
15083;DHT22;7640;53.116;6.878;2022-11-09T00:23:56;13.60;99.90
15083;DHT22;7640;53.116;6.878;2022-11-09T00:26:25;13.60;99.90
15083;DHT22;7640;53.116;6.878;2022-11-09T00:28:54;13.60;99.90
15083;DHT22;7640;53.116;6.878;2022-11-09T00:31:23;13.60;99.90
15083;DHT22;7640;53.116;6.878;2022-11-09T00:33:52;13.60;99.90
15083;DHT22;7640;53.116;6.878;2022-11-09T00:36:23;13.60;99.90
15083;DHT22;7640;53.116;6.878;2022-11-09T00:38:55;13.60;99.90
15083;DHT22;7640;53.116;6.878;2022-11-09T00:41:26;13.60;99.90
15083;DHT22;7640;53.116;6.878;2022-11-09T00:43:54;13.60;99.90
15083;DHT22;7640;53.116;6.878;2022-11-09T00:46:23;13.50;99.90
15083;DHT22;7640;53.116;6.878;2022-11-09T00:48:53;13.50;99.90
15083;DHT22;7640;53.116;6.878;2022-11-09T00:51:22;13.40;99.90
15083;DHT22;7640;53.116;6.878;2022-11-09T00:53:50;13.40;99.90
15083;DHT22;7640;53.116;6.878;2022-11-09T00:56:20;13.30;99.90
15083;DHT22;7640;53.116;6.878;2022-11-09T00:58:53;13.30;99.90
15083;DHT22;7640;53.116;6.878;2022-11-09T01:01:22;13.20;99.90
15083;DHT22;7640;53.116;6.878;2022-11-09T01:03:50;13.20;99.90
15083;DHT22;7640;53.116;6.878;2022-11-09T01:06:20;13.20;99.90
15083;DHT22;7640;53.116;6.878;2022-11-09T01:08:50;13.10;99.90
15083;DHT22;7640;53.116;6.878;2022-11-09T01:11:20;13.10;99.90
15083;DHT22;7640;53.116;6.878;2022-11-09T01:13:49;13.20;99.90
15083;DHT22;7640;53.116;6.878;2022-11-09T01:16:21;13.10;99.90
15083;DHT22;7640;53.116;6.878;2022-11-09T01:18:52;13.10;99.90
15083;DHT22;7640;53.116;6.878;2022-11-09T01:21:21;13.00;99.90
15083;DHT22;7640;53.116;6.878;2022-11-09T01:23:49;13.10;99.90
15083;DHT22;7640;53.116;6.878;2022-11-09T01:26:18;13.10;99.90
15083;DHT22;7640;53.116;6.878;2022-11-09T01:28:46;13.10;99.90
15083;DHT22;7640;53.116;6.878;2022-11-09T01:31:17;13.10;99.90
15083;DHT22;7640;53.116;6.878;2022-11-09T01:33:47;13.20;99.90
15083;DHT22;7640;53.116;6.878;2022-11-09T01:36:17;13.20;99.90
15083;DHT22;7640;53.116;6.878;2022-11-09T01:38:47;13.20;99.90
15083;DHT22;7640;53.116;6.878;2022-11-09T01:41:18;13.20;99.90
15083;DHT22;7640;53.116;6.878;2022-11-09T01:44:02;13.10;99.90
15083;DHT22;7640;53.116;6.878;2022-11-09T01:46:37;13.10;99.90
15083;DHT22;7640;53.116;6.878;2022-11-09T01:49:12;13.10;99.90
15083;DHT22;7640;53.116;6.878;2022-11-09T01:51:46;13.00;99.90
15083;DHT22;7640;53.116;6.878;2022-11-09T01:54:18;13.00;99.90
15083;DHT22;7640;53.116;6.878;2022-11-09T01:56:52;13.00;99.90
15083;DHT22;7640;53.116;6.878;2022-11-09T01:59:25;12.90;99.90
15083;DHT22;7640;53.116;6.878;2022-11-09T02:01:59;12.80;99.90
15083;DHT22;7640;53.116;6.878;2022-11-09T02:04:29;12.90;99.90
15083;DHT22;7640;53.116;6.878;2022-11-09T02:07:01;12.90;99.90
15083;DHT22;7640;53.116;6.878;2022-11-09T02:09:34;13.00;99.90
15083;DHT22;7640;53.116;6.878;2022-11-09T02:12:06;13.00;99.90
15083;DHT22;7640;53.116;6.878;2022-11-09T02:14:36;13.00;99.90
15083;DHT22;7640;53.116;6.878;2022-11-09T02:17:07;13.00;99.90
15083;DHT22;7640;53.116;6.878;2022-11-09T02:19:36;13.00;99.90
15083;DHT22;7640;53.116;6.878;2022-11-09T02:22:05;13.00;99.90
15083;DHT22;7640;53.116;6.878;2022-11-09T02:24:33;13.00;99.90
15083;DHT22;7640;53.116;6.878;2022-11-09T02:27:04;12.90;99.90
15083;DHT22;7640;53.116;6.878;2022-11-09T02:29:35;12.90;99.90
15083;DHT22;7640;53.116;6.878;2022-11-09T02:32:10;12.80;99.90
15083;DHT22;7640;53.116;6.878;2022-11-09T02:34:40;12.80;99.90
15083;DHT22;7640;53.116;6.878;2022-11-09T02:37:10;12.80;99.90
15083;DHT22;7640;53.116;6.878;2022-11-09T02:39:38;12.70;99.90
15083;DHT22;7640;53.116;6.878;2022-11-09T02:42:10;12.70;99.90
15083;DHT22;7640;53.116;6.878;2022-11-09T02:44:50;12.70;99.90
15083;DHT22;7640;53.116;6.878;2022-11-09T02:47:19;12.80;99.90
15083;DHT22;7640;53.116;6.878;2022-11-09T02:49:48;12.70;99.90
15083;DHT22;7640;53.116;6.878;2022-11-09T02:52:18;12.70;99.90
15083;DHT22;7640;53.116;6.878;2022-11-09T02:54:46;12.70;99.90
15083;DHT22;7640;53.116;6.878;2022-11-09T02:57:14;12.80;99.90
15083;DHT22;7640;53.116;6.878;2022-11-09T02:59:43;12.70;99.90
15083;DHT22;7640;53.116;6.878;2022-11-09T03:02:11;12.70;99.90
15083;DHT22;7640;53.116;6.878;2022-11-09T03:04:39;12.70;99.90
15083;DHT22;7640;53.116;6.878;2022-11-09T03:07:07;12.80;99.90
15083;DHT22;7640;53.116;6.878;2022-11-09T03:09:37;12.80;99.90
15083;DHT22;7640;53.116;6.878;2022-11-09T03:12:05;12.80;99.90
15083;DHT22;7640;53.116;6.878;2022-11-09T03:14:49;12.80;99.90
15083;DHT22;7640;53.116;6.878;2022-11-09T03:17:17;12.80;99.90
15083;DHT22;7640;53.116;6.878;2022-11-09T03:19:45;12.80;99.90
15083;DHT22;7640;53.116;6.878;2022-11-09T03:22:14;12.80;99.90
15083;DHT22;7640;53.116;6.878;2022-11-09T03:24:44;12.80;99.90
15083;DHT22;7640;53.116;6.878;2022-11-09T03:27:12;12.80;99.90
15083;DHT22;7640;53.116;6.878;2022-11-09T03:29:40;12.80;99.90
15083;DHT22;7640;53.116;6.878;2022-11-09T03:32:09;12.80;99.90
15083;DHT22;7640;53.116;6.878;2022-11-09T03:34:37;12.80;99.90
15083;DHT22;7640;53.116;6.878;2022-11-09T03:37:05;12.80;99.90
15083;DHT22;7640;53.116;6.878;2022-11-09T03:39:33;12.80;99.90
15083;DHT22;7640;53.116;6.878;2022-11-09T03:42:03;12.80;99.90
15083;DHT22;7640;53.116;6.878;2022-11-09T03:44:31;12.80;99.90
15083;DHT22;7640;53.116;6.878;2022-11-09T03:46:59;12.80;99.90
15083;DHT22;7640;53.116;6.878;2022-11-09T03:49:28;12.80;99.90
15083;DHT22;7640;53.116;6.878;2022-11-09T03:51:56;12.80;99.90
15083;DHT22;7640;53.116;6.878;2022-11-09T03:54:24;12.80;99.90
15083;DHT22;7640;53.116;6.878;2022-11-09T03:56:52;12.80;99.90
15083;DHT22;7640;53.116;6.878;2022-11-09T03:59:22;12.70;99.90
15083;DHT22;7640;53.116;6.878;2022-11-09T04:01:50;12.80;99.90
15083;DHT22;7640;53.116;6.878;2022-11-09T04:04:18;12.80;99.90
15083;DHT22;7640;53.116;6.878;2022-11-09T04:06:47;12.80;99.90
15083;DHT22;7640;53.116;6.878;2022-11-09T04:09:15;12.80;99.90
15083;DHT22;7640;53.116;6.878;2022-11-09T04:11:43;12.80;99.90
15083;DHT22;7640;53.116;6.878;2022-11-09T04:14:11;12.70;99.90
15083;DHT22;7640;53.116;6.878;2022-11-09T04:16:42;12.80;99.90
15083;DHT22;7640;53.116;6.878;2022-11-09T04:19:10;12.80;99.90
15083;DHT22;7640;53.116;6.878;2022-11-09T04:21:38;12.70;99.90
15083;DHT22;7640;53.116;6.878;2022-11-09T04:24:06;12.70;99.90
15083;DHT22;7640;53.116;6.878;2022-11-09T04:26:35;12.70;99.90
15083;DHT22;7640;53.116;6.878;2022-11-09T04:29:03;12.70;99.90
15083;DHT22;7640;53.116;6.878;2022-11-09T04:31:31;12.70;99.90
15083;DHT22;7640;53.116;6.878;2022-11-09T04:34:01;12.70;99.90
15083;DHT22;7640;53.116;6.878;2022-11-09T04:36:29;12.70;99.90
15083;DHT22;7640;53.116;6.878;2022-11-09T04:38:58;12.70;99.90
15083;DHT22;7640;53.116;6.878;2022-11-09T04:41:26;12.70;99.90
15083;DHT22;7640;53.116;6.878;2022-11-09T04:43:55;12.70;99.90
15083;DHT22;7640;53.116;6.878;2022-11-09T04:46:23;12.70;99.90
15083;DHT22;7640;53.116;6.878;2022-11-09T04:48:51;12.60;99.90
15083;DHT22;7640;53.116;6.878;2022-11-09T04:51:21;12.60;99.90
15083;DHT22;7640;53.116;6.878;2022-11-09T04:53:49;12.70;99.90
15083;DHT22;7640;53.116;6.878;2022-11-09T04:56:18;12.60;99.90
15083;DHT22;7640;53.116;6.878;2022-11-09T04:58:46;12.60;99.90
15083;DHT22;7640;53.116;6.878;2022-11-09T05:01:15;12.60;99.90
15083;DHT22;7640;53.116;6.878;2022-11-09T05:03:43;12.60;99.90
15083;DHT22;7640;53.116;6.878;2022-11-09T05:06:12;12.60;99.90
15083;DHT22;7640;53.116;6.878;2022-11-09T05:09:00;12.60;99.90
15083;DHT22;7640;53.116;6.878;2022-11-09T05:11:30;12.60;99.90
15083;DHT22;7640;53.116;6.878;2022-11-09T05:13:59;12.70;99.90
15083;DHT22;7640;53.116;6.878;2022-11-09T05:16:28;12.70;99.90
15083;DHT22;7640;53.116;6.878;2022-11-09T05:18:56;12.70;99.90
15083;DHT22;7640;53.116;6.878;2022-11-09T05:21:25;12.80;99.90
15083;DHT22;7640;53.116;6.878;2022-11-09T05:23:53;12.80;99.90
15083;DHT22;7640;53.116;6.878;2022-11-09T05:26:29;12.80;99.90
15083;DHT22;7640;53.116;6.878;2022-11-09T05:28:59;13.00;99.90
15083;DHT22;7640;53.116;6.878;2022-11-09T05:31:28;12.90;99.90
15083;DHT22;7640;53.116;6.878;2022-11-09T05:33:57;12.90;99.90
15083;DHT22;7640;53.116;6.878;2022-11-09T05:36:27;12.90;99.90
15083;DHT22;7640;53.116;6.878;2022-11-09T05:38:59;12.90;99.90
15083;DHT22;7640;53.116;6.878;2022-11-09T05:41:29;12.90;99.90
15083;DHT22;7640;53.116;6.878;2022-11-09T05:43:57;12.90;99.90
15083;DHT22;7640;53.116;6.878;2022-11-09T05:46:25;13.00;99.90
15083;DHT22;7640;53.116;6.878;2022-11-09T05:48:53;13.10;99.90
15083;DHT22;7640;53.116;6.878;2022-11-09T05:51:21;13.10;99.90
15083;DHT22;7640;53.116;6.878;2022-11-09T05:53:50;13.20;99.90
15083;DHT22;7640;53.116;6.878;2022-11-09T05:56:18;13.20;99.90
15083;DHT22;7640;53.116;6.878;2022-11-09T05:58:47;13.20;99.90
15083;DHT22;7640;53.116;6.878;2022-11-09T06:01:16;13.10;99.90
15083;DHT22;7640;53.116;6.878;2022-11-09T06:03:45;13.10;99.90
15083;DHT22;7640;53.116;6.878;2022-11-09T06:06:15;13.10;99.90
15083;DHT22;7640;53.116;6.878;2022-11-09T06:08:43;13.10;99.90
15083;DHT22;7640;53.116;6.878;2022-11-09T06:11:12;13.10;99.90
15083;DHT22;7640;53.116;6.878;2022-11-09T06:13:51;13.00;99.90
15083;DHT22;7640;53.116;6.878;2022-11-09T06:16:19;13.00;99.90
15083;DHT22;7640;53.116;6.878;2022-11-09T06:18:48;13.00;99.90
15083;DHT22;7640;53.116;6.878;2022-11-09T06:21:16;13.00;99.90
15083;DHT22;7640;53.116;6.878;2022-11-09T06:23:44;12.90;99.90
15083;DHT22;7640;53.116;6.878;2022-11-09T06:26:13;12.90;99.90
15083;DHT22;7640;53.116;6.878;2022-11-09T06:28:41;12.90;99.90
15083;DHT22;7640;53.116;6.878;2022-11-09T06:31:13;12.80;99.90
15083;DHT22;7640;53.116;6.878;2022-11-09T06:33:42;12.80;99.90
15083;DHT22;7640;53.116;6.878;2022-11-09T06:36:11;12.80;99.90
15083;DHT22;7640;53.116;6.878;2022-11-09T06:38:39;12.80;99.90
15083;DHT22;7640;53.116;6.878;2022-11-09T06:41:08;12.70;99.90
15083;DHT22;7640;53.116;6.878;2022-11-09T06:43:37;12.70;99.90
15083;DHT22;7640;53.116;6.878;2022-11-09T06:46:05;12.70;99.90
15083;DHT22;7640;53.116;6.878;2022-11-09T06:48:38;12.60;99.90
15083;DHT22;7640;53.116;6.878;2022-11-09T06:51:06;12.60;99.90
15083;DHT22;7640;53.116;6.878;2022-11-09T06:53:34;12.60;99.90
15083;DHT22;7640;53.116;6.878;2022-11-09T06:56:05;12.60;99.90
15083;DHT22;7640;53.116;6.878;2022-11-09T06:58:35;12.60;99.90
15083;DHT22;7640;53.116;6.878;2022-11-09T07:01:08;12.60;99.90
15083;DHT22;7640;53.116;6.878;2022-11-09T07:03:39;12.60;99.90
15083;DHT22;7640;53.116;6.878;2022-11-09T07:06:10;12.50;99.90
15083;DHT22;7640;53.116;6.878;2022-11-09T07:08:40;12.50;99.90
15083;DHT22;7640;53.116;6.878;2022-11-09T07:11:10;12.50;99.90
15083;DHT22;7640;53.116;6.878;2022-11-09T07:13:39;12.50;99.90
15083;DHT22;7640;53.116;6.878;2022-11-09T07:16:07;12.50;99.90
15083;DHT22;7640;53.116;6.878;2022-11-09T07:18:39;12.60;99.90
15083;DHT22;7640;53.116;6.878;2022-11-09T07:21:07;12.60;99.90
15083;DHT22;7640;53.116;6.878;2022-11-09T07:23:40;12.60;99.90
15083;DHT22;7640;53.116;6.878;2022-11-09T07:26:08;12.60;99.90
15083;DHT22;7640;53.116;6.878;2022-11-09T07:28:37;12.60;99.90
15083;DHT22;7640;53.116;6.878;2022-11-09T07:31:05;12.60;99.90
15083;DHT22;7640;53.116;6.878;2022-11-09T07:33:35;12.60;99.90
15083;DHT22;7640;53.116;6.878;2022-11-09T07:36:16;12.60;99.90
15083;DHT22;7640;53.116;6.878;2022-11-09T07:38:49;12.60;99.90
15083;DHT22;7640;53.116;6.878;2022-11-09T07:41:18;12.60;99.90
15083;DHT22;7640;53.116;6.878;2022-11-09T07:43:56;12.70;99.90
15083;DHT22;7640;53.116;6.878;2022-11-09T07:46:25;12.70;99.90
15083;DHT22;7640;53.116;6.878;2022-11-09T07:48:58;12.70;99.90
15083;DHT22;7640;53.116;6.878;2022-11-09T07:51:28;12.60;99.90
15083;DHT22;7640;53.116;6.878;2022-11-09T07:53:56;12.70;99.90
15083;DHT22;7640;53.116;6.878;2022-11-09T07:56:25;12.70;99.90
15083;DHT22;7640;53.116;6.878;2022-11-09T07:58:53;12.70;99.90
15083;DHT22;7640;53.116;6.878;2022-11-09T08:01:21;12.70;99.90
15083;DHT22;7640;53.116;6.878;2022-11-09T08:03:51;12.70;99.90
15083;DHT22;7640;53.116;6.878;2022-11-09T08:06:21;12.70;99.90
15083;DHT22;7640;53.116;6.878;2022-11-09T08:08:54;12.70;99.90
15083;DHT22;7640;53.116;6.878;2022-11-09T08:11:24;12.80;99.90
15083;DHT22;7640;53.116;6.878;2022-11-09T08:13:52;12.80;99.90
15083;DHT22;7640;53.116;6.878;2022-11-09T08:16:21;12.80;99.90
15083;DHT22;7640;53.116;6.878;2022-11-09T08:18:50;12.90;99.90
15083;DHT22;7640;53.116;6.878;2022-11-09T08:21:20;12.90;99.90
15083;DHT22;7640;53.116;6.878;2022-11-09T08:23:48;12.90;99.90
15083;DHT22;7640;53.116;6.878;2022-11-09T08:26:17;13.00;99.90
15083;DHT22;7640;53.116;6.878;2022-11-09T08:28:46;13.00;99.90
15083;DHT22;7640;53.116;6.878;2022-11-09T08:31:14;13.00;99.90
15083;DHT22;7640;53.116;6.878;2022-11-09T08:33:42;13.00;99.90
15083;DHT22;7640;53.116;6.878;2022-11-09T08:36:12;13.10;99.90
15083;DHT22;7640;53.116;6.878;2022-11-09T08:38:43;13.10;99.90
15083;DHT22;7640;53.116;6.878;2022-11-09T08:41:12;13.10;99.90
15083;DHT22;7640;53.116;6.878;2022-11-09T08:43:41;13.20;99.90
15083;DHT22;7640;53.116;6.878;2022-11-09T08:46:09;13.20;99.90
15083;DHT22;7640;53.116;6.878;2022-11-09T08:48:38;13.20;99.90
15083;DHT22;7640;53.116;6.878;2022-11-09T08:51:06;13.20;99.90
15083;DHT22;7640;53.116;6.878;2022-11-09T08:53:34;13.30;99.90
15083;DHT22;7640;53.116;6.878;2022-11-09T08:56:06;13.30;99.90
15083;DHT22;7640;53.116;6.878;2022-11-09T08:58:36;13.30;99.90
15083;DHT22;7640;53.116;6.878;2022-11-09T09:01:06;13.30;99.90
15083;DHT22;7640;53.116;6.878;2022-11-09T09:03:45;13.30;99.90
15083;DHT22;7640;53.116;6.878;2022-11-09T09:06:18;13.40;99.90
15083;DHT22;7640;53.116;6.878;2022-11-09T09:08:51;13.40;99.90
15083;DHT22;7640;53.116;6.878;2022-11-09T09:11:26;13.40;99.90
15083;DHT22;7640;53.116;6.878;2022-11-09T09:14:00;13.50;99.90
15083;DHT22;7640;53.116;6.878;2022-11-09T09:16:33;13.50;99.90
15083;DHT22;7640;53.116;6.878;2022-11-09T09:19:05;13.50;99.90
15083;DHT22;7640;53.116;6.878;2022-11-09T09:21:35;13.60;99.90
15083;DHT22;7640;53.116;6.878;2022-11-09T09:24:07;13.60;99.90
15083;DHT22;7640;53.116;6.878;2022-11-09T09:26:39;13.60;99.90
15083;DHT22;7640;53.116;6.878;2022-11-09T09:29:13;13.70;99.90
15083;DHT22;7640;53.116;6.878;2022-11-09T09:31:43;13.70;99.90
15083;DHT22;7640;53.116;6.878;2022-11-09T09:34:11;13.80;99.90
15083;DHT22;7640;53.116;6.878;2022-11-09T09:36:40;13.80;99.90
15083;DHT22;7640;53.116;6.878;2022-11-09T09:39:14;13.90;99.90
15083;DHT22;7640;53.116;6.878;2022-11-09T09:41:50;13.90;99.90
15083;DHT22;7640;53.116;6.878;2022-11-09T09:44:27;14.00;99.90
15083;DHT22;7640;53.116;6.878;2022-11-09T09:47:03;14.10;99.90
15083;DHT22;7640;53.116;6.878;2022-11-09T09:49:40;14.10;99.90
15083;DHT22;7640;53.116;6.878;2022-11-09T09:52:17;14.10;99.90
15083;DHT22;7640;53.116;6.878;2022-11-09T09:54:53;14.20;99.90
15083;DHT22;7640;53.116;6.878;2022-11-09T09:57:28;14.20;99.90
15083;DHT22;7640;53.116;6.878;2022-11-09T10:00:00;14.20;99.90
15083;DHT22;7640;53.116;6.878;2022-11-09T10:02:30;14.30;99.90
15083;DHT22;7640;53.116;6.878;2022-11-09T10:05:06;14.40;99.90
15083;DHT22;7640;53.116;6.878;2022-11-09T10:07:41;14.40;99.90
15083;DHT22;7640;53.116;6.878;2022-11-09T10:10:36;14.40;99.90
15083;DHT22;7640;53.116;6.878;2022-11-09T10:13:28;14.40;99.90
15083;DHT22;7640;53.116;6.878;2022-11-09T10:16:11;14.40;99.90
15083;DHT22;7640;53.116;6.878;2022-11-09T10:18:58;14.40;99.90
15083;DHT22;7640;53.116;6.878;2022-11-09T10:21:46;14.40;99.90
15083;DHT22;7640;53.116;6.878;2022-11-09T10:24:38;14.40;99.90
15083;DHT22;7640;53.116;6.878;2022-11-09T10:27:33;14.40;99.90
15083;DHT22;7640;53.116;6.878;2022-11-09T10:30:12;14.40;99.90
15083;DHT22;7640;53.116;6.878;2022-11-09T10:32:44;14.50;99.90
15083;DHT22;7640;53.116;6.878;2022-11-09T10:35:18;14.60;99.90
15083;DHT22;7640;53.116;6.878;2022-11-09T10:37:49;14.70;99.90
15083;DHT22;7640;53.116;6.878;2022-11-09T10:40:21;14.80;99.90
15083;DHT22;7640;53.116;6.878;2022-11-09T10:42:54;14.90;99.90
15083;DHT22;7640;53.116;6.878;2022-11-09T10:45:30;14.90;99.90
15083;DHT22;7640;53.116;6.878;2022-11-09T10:48:00;15.00;99.90
15083;DHT22;7640;53.116;6.878;2022-11-09T10:50:33;15.00;99.90
15083;DHT22;7640;53.116;6.878;2022-11-09T10:53:14;15.10;99.90
15083;DHT22;7640;53.116;6.878;2022-11-09T10:55:52;15.10;99.90
15083;DHT22;7640;53.116;6.878;2022-11-09T10:58:29;15.20;99.90
15083;DHT22;7640;53.116;6.878;2022-11-09T11:01:02;15.20;99.90
15083;DHT22;7640;53.116;6.878;2022-11-09T11:03:35;15.10;99.90
15083;DHT22;7640;53.116;6.878;2022-11-09T11:06:06;15.10;99.90
15083;DHT22;7640;53.116;6.878;2022-11-09T11:08:45;15.10;99.90
15083;DHT22;7640;53.116;6.878;2022-11-09T11:11:22;15.10;99.90
15083;DHT22;7640;53.116;6.878;2022-11-09T11:14:12;15.10;99.90
15083;DHT22;7640;53.116;6.878;2022-11-09T11:16:50;15.10;99.90
15083;DHT22;7640;53.116;6.878;2022-11-09T11:19:34;15.20;99.90
15083;DHT22;7640;53.116;6.878;2022-11-09T11:22:21;15.30;99.90
15083;DHT22;7640;53.116;6.878;2022-11-09T11:24:55;15.30;99.90
15083;DHT22;7640;53.116;6.878;2022-11-09T11:27:29;15.30;99.90
15083;DHT22;7640;53.116;6.878;2022-11-09T11:30:08;15.40;99.90
15083;DHT22;7640;53.116;6.878;2022-11-09T11:32:39;15.50;99.90
15083;DHT22;7640;53.116;6.878;2022-11-09T11:35:30;15.50;99.90
15083;DHT22;7640;53.116;6.878;2022-11-09T11:38:15;15.60;99.90
15083;DHT22;7640;53.116;6.878;2022-11-09T11:40:59;15.60;99.90
15083;DHT22;7640;53.116;6.878;2022-11-09T11:43:38;15.50;99.90
15083;DHT22;7640;53.116;6.878;2022-11-09T11:46:16;15.50;99.90
15083;DHT22;7640;53.116;6.878;2022-11-09T11:49:28;15.50;99.90
15083;DHT22;7640;53.116;6.878;2022-11-09T11:52:18;15.40;99.90
15083;DHT22;7640;53.116;6.878;2022-11-09T11:55:07;15.40;99.90
15083;DHT22;7640;53.116;6.878;2022-11-09T11:57:57;15.40;99.90
15083;DHT22;7640;53.116;6.878;2022-11-09T12:00:39;15.40;99.90
15083;DHT22;7640;53.116;6.878;2022-11-09T12:03:39;15.40;99.90
15083;DHT22;7640;53.116;6.878;2022-11-09T12:09:29;15.40;99.90
15083;DHT22;7640;53.116;6.878;2022-11-09T12:12:22;15.30;99.90
15083;DHT22;7640;53.116;6.878;2022-11-09T12:15:14;15.30;99.90
15083;DHT22;7640;53.116;6.878;2022-11-09T12:17:55;15.30;99.90
15083;DHT22;7640;53.116;6.878;2022-11-09T12:20:39;15.40;99.90
15083;DHT22;7640;53.116;6.878;2022-11-09T12:23:27;15.50;99.90
15083;DHT22;7640;53.116;6.878;2022-11-09T12:26:11;15.50;99.90
15083;DHT22;7640;53.116;6.878;2022-11-09T12:29:10;15.50;99.90
15083;DHT22;7640;53.116;6.878;2022-11-09T12:31:53;15.40;99.90
15083;DHT22;7640;53.116;6.878;2022-11-09T12:34:30;15.30;99.90
15083;DHT22;7640;53.116;6.878;2022-11-09T12:37:03;15.30;99.90
15083;DHT22;7640;53.116;6.878;2022-11-09T12:39:39;15.40;99.90
15083;DHT22;7640;53.116;6.878;2022-11-09T12:42:14;15.30;99.90
15083;DHT22;7640;53.116;6.878;2022-11-09T12:44:50;15.30;99.90
15083;DHT22;7640;53.116;6.878;2022-11-09T12:47:29;15.30;99.90
15083;DHT22;7640;53.116;6.878;2022-11-09T12:49:58;15.30;99.90
15083;DHT22;7640;53.116;6.878;2022-11-09T12:52:28;15.30;99.90
15083;DHT22;7640;53.116;6.878;2022-11-09T12:55:01;15.30;99.90
15083;DHT22;7640;53.116;6.878;2022-11-09T12:57:31;15.40;99.90
15083;DHT22;7640;53.116;6.878;2022-11-09T13:00:00;15.40;99.90
15083;DHT22;7640;53.116;6.878;2022-11-09T13:02:30;15.40;99.90
15083;DHT22;7640;53.116;6.878;2022-11-09T13:05:00;15.40;99.90
15083;DHT22;7640;53.116;6.878;2022-11-09T13:07:46;15.40;99.90
15083;DHT22;7640;53.116;6.878;2022-11-09T13:10:25;15.40;99.90
15083;DHT22;7640;53.116;6.878;2022-11-09T13:13:19;15.30;99.90
15083;DHT22;7640;53.116;6.878;2022-11-09T13:16:11;15.30;99.90
15083;DHT22;7640;53.116;6.878;2022-11-09T13:18:58;15.30;99.90
15083;DHT22;7640;53.116;6.878;2022-11-09T13:21:40;15.20;99.90
15083;DHT22;7640;53.116;6.878;2022-11-09T13:27:37;15.10;99.90
15083;DHT22;7640;53.116;6.878;2022-11-09T13:30:40;14.90;99.90
15083;DHT22;7640;53.116;6.878;2022-11-09T13:33:17;14.70;99.90
15083;DHT22;7640;53.116;6.878;2022-11-09T13:35:56;14.50;99.90
15083;DHT22;7640;53.116;6.878;2022-11-09T13:38:37;14.40;99.90
15083;DHT22;7640;53.116;6.878;2022-11-09T13:41:39;14.20;99.90
15083;DHT22;7640;53.116;6.878;2022-11-09T13:44:20;14.20;99.90
15083;DHT22;7640;53.116;6.878;2022-11-09T13:46:51;14.10;99.90
15083;DHT22;7640;53.116;6.878;2022-11-09T13:49:45;14.10;99.90
15083;DHT22;7640;53.116;6.878;2022-11-09T13:55:29;14.20;99.90
15083;DHT22;7640;53.116;6.878;2022-11-09T13:58:04;14.20;99.90
15083;DHT22;7640;53.116;6.878;2022-11-09T14:00:38;14.40;99.90
15083;DHT22;7640;53.116;6.878;2022-11-09T14:03:18;14.50;99.90
15083;DHT22;7640;53.116;6.878;2022-11-09T14:05:50;14.60;99.90
15083;DHT22;7640;53.116;6.878;2022-11-09T14:08:23;14.70;99.90
15083;DHT22;7640;53.116;6.878;2022-11-09T14:11:12;14.70;99.90
15083;DHT22;7640;53.116;6.878;2022-11-09T14:14:15;14.70;99.90
15083;DHT22;7640;53.116;6.878;2022-11-09T14:17:17;14.70;99.90
15083;DHT22;7640;53.116;6.878;2022-11-09T14:19:54;14.70;99.90
15083;DHT22;7640;53.116;6.878;2022-11-09T14:22:39;14.70;99.90
15083;DHT22;7640;53.116;6.878;2022-11-09T14:25:15;14.70;99.90
15083;DHT22;7640;53.116;6.878;2022-11-09T14:27:48;14.70;99.90
15083;DHT22;7640;53.116;6.878;2022-11-09T14:30:25;14.70;99.90
15083;DHT22;7640;53.116;6.878;2022-11-09T14:32:57;14.70;99.90
15083;DHT22;7640;53.116;6.878;2022-11-09T14:35:28;14.70;99.90
15083;DHT22;7640;53.116;6.878;2022-11-09T14:38:00;14.60;99.90
15083;DHT22;7640;53.116;6.878;2022-11-09T14:40:30;14.50;99.90
15083;DHT22;7640;53.116;6.878;2022-11-09T14:43:03;14.50;99.90
15083;DHT22;7640;53.116;6.878;2022-11-09T14:45:34;14.50;99.90
15083;DHT22;7640;53.116;6.878;2022-11-09T14:48:04;14.40;99.90
15083;DHT22;7640;53.116;6.878;2022-11-09T14:50:36;14.40;99.90
15083;DHT22;7640;53.116;6.878;2022-11-09T14:53:05;14.30;99.90
15083;DHT22;7640;53.116;6.878;2022-11-09T14:55:36;14.20;99.90
15083;DHT22;7640;53.116;6.878;2022-11-09T14:58:10;14.10;99.90
15083;DHT22;7640;53.116;6.878;2022-11-09T15:00:39;13.90;99.90
15083;DHT22;7640;53.116;6.878;2022-11-09T15:03:24;13.70;99.90
15083;DHT22;7640;53.116;6.878;2022-11-09T15:06:04;13.50;99.90
15083;DHT22;7640;53.116;6.878;2022-11-09T15:08:36;13.40;99.90
15083;DHT22;7640;53.116;6.878;2022-11-09T15:11:07;13.30;99.90
15083;DHT22;7640;53.116;6.878;2022-11-09T15:13:37;13.20;99.90
15083;DHT22;7640;53.116;6.878;2022-11-09T15:16:13;13.00;99.90
15083;DHT22;7640;53.116;6.878;2022-11-09T15:18:48;13.00;99.90
15083;DHT22;7640;53.116;6.878;2022-11-09T15:21:19;12.90;99.90
15083;DHT22;7640;53.116;6.878;2022-11-09T15:24:05;12.80;99.90
15083;DHT22;7640;53.116;6.878;2022-11-09T15:26:43;12.80;99.90
15083;DHT22;7640;53.116;6.878;2022-11-09T15:29:35;12.70;99.90
15083;DHT22;7640;53.116;6.878;2022-11-09T15:32:13;12.70;99.90
15083;DHT22;7640;53.116;6.878;2022-11-09T15:34:52;12.60;99.90
15083;DHT22;7640;53.116;6.878;2022-11-09T15:37:25;12.60;99.90
15083;DHT22;7640;53.116;6.878;2022-11-09T15:39:56;12.60;99.90
15083;DHT22;7640;53.116;6.878;2022-11-09T15:42:25;12.60;99.90
15083;DHT22;7640;53.116;6.878;2022-11-09T15:44:55;12.60;99.90
15083;DHT22;7640;53.116;6.878;2022-11-09T15:47:28;12.50;99.90
15083;DHT22;7640;53.116;6.878;2022-11-09T15:50:02;12.50;99.90
15083;DHT22;7640;53.116;6.878;2022-11-09T15:52:34;12.40;99.90
15083;DHT22;7640;53.116;6.878;2022-11-09T15:55:02;12.40;99.90
15083;DHT22;7640;53.116;6.878;2022-11-09T15:57:31;12.30;99.90
15083;DHT22;7640;53.116;6.878;2022-11-09T15:59:59;12.30;99.90
15083;DHT22;7640;53.116;6.878;2022-11-09T16:02:38;12.20;99.90
15083;DHT22;7640;53.116;6.878;2022-11-09T16:05:08;12.20;99.90
15083;DHT22;7640;53.116;6.878;2022-11-09T16:07:37;12.20;99.90
15083;DHT22;7640;53.116;6.878;2022-11-09T16:10:15;12.10;99.90
15083;DHT22;7640;53.116;6.878;2022-11-09T16:12:49;12.10;99.90
15083;DHT22;7640;53.116;6.878;2022-11-09T16:15:19;12.10;99.90
15083;DHT22;7640;53.116;6.878;2022-11-09T16:17:47;12.10;99.90
15083;DHT22;7640;53.116;6.878;2022-11-09T16:20:19;12.10;99.90
15083;DHT22;7640;53.116;6.878;2022-11-09T16:22:47;12.10;99.90
15083;DHT22;7640;53.116;6.878;2022-11-09T16:25:16;12.00;99.90
15083;DHT22;7640;53.116;6.878;2022-11-09T16:27:45;12.10;99.90
15083;DHT22;7640;53.116;6.878;2022-11-09T16:30:17;12.10;99.90
15083;DHT22;7640;53.116;6.878;2022-11-09T16:32:46;12.10;99.90